Time;durP1;ratioP1;P1;durP2;ratioP2;P2;SDS_P1;SDS_P2;PMS_P1;PMS_P2;Temp;Humidity;BMP_temperature;BMP_pressure;BME280_temperature;BME280_humidity;BME280_pressure;Samples;Min_cycle;Max_cycle;Signal;HPM_P1;HPM_P2
2023/08/29 00:00:32;;;;;;;6.72;4.65;;;;;;;;;;5014823;28;20095;-78
2023/08/29 00:03:03;;;;;;;6.22;4.60;;;;;;;;;;5014343;28;20038;-78
2023/08/29 00:05:29;;;;;;;10.35;4.68;;;;;;;;;;5017251;28;20132;-77
2023/08/29 00:07:55;;;;;;;10.27;4.78;;;;;;;;;;5018898;28;20048;-77
2023/08/29 00:10:21;;;;;;;9.00;5.00;;;;;;;;;;5000097;28;20045;-78
2023/08/29 00:12:47;;;;;;;6.20;4.80;;;;;;;;;;5014319;28;20042;-78
2023/08/29 00:15:15;;;;;;;7.57;4.95;;;;;;;;;;5014378;28;20136;-79
2023/08/29 00:17:41;;;;;;;9.52;4.93;;;;;;;;;;5032179;28;20041;-79
2023/08/29 00:20:07;;;;;;;9.57;5.47;;;;;;;;;;5014224;28;20042;-79
2023/08/29 00:22:33;;;;;;;6.47;4.63;;;;;;;;;;5034857;28;20116;-79
2023/08/29 00:24:59;;;;;;;8.75;6.10;;;;;;;;;;5017332;28;20585;-79
2023/08/29 00:27:25;;;;;;;7.57;5.15;;;;;;;;;;5024318;28;20054;-79
2023/08/29 00:29:51;;;;;;;8.30;4.75;;;;;;;;;;5015221;28;20041;-79
2023/08/29 00:32:17;;;;;;;6.40;4.63;;;;;;;;;;5017595;28;20052;-79
2023/08/29 00:34:43;;;;;;;7.68;4.30;;;;;;;;;;5034475;28;20128;-79
2023/08/29 00:37:09;;;;;;;7.50;3.95;;;;;;;;;;5017057;28;20108;-79
2023/08/29 00:39:35;;;;;;;5.80;4.10;;;;;;;;;;5005717;28;20052;-79
2023/08/29 00:42:01;;;;;;;6.95;4.60;;;;;;;;;;5035573;28;20037;-79
2023/08/29 00:44:27;;;;;;;7.78;4.40;;;;;;;;;;5035174;28;20049;-79
2023/08/29 00:46:54;;;;;;;7.30;4.68;;;;;;;;;;5035361;28;20049;-79
2023/08/29 00:49:22;;;;;;;7.93;4.40;;;;;;;;;;5034823;28;20064;-78
2023/08/29 00:51:48;;;;;;;8.15;4.57;;;;;;;;;;5000026;28;20045;-79
2023/08/29 00:54:16;;;;;;;7.57;4.00;;;;;;;;;;5015627;28;20457;-79
2023/08/29 00:56:43;;;;;;;5.70;4.10;;;;;;;;;;5017373;28;20520;-79
2023/08/29 00:59:09;;;;;;;6.55;4.28;;;;;;;;;;5000426;28;20045;-77
2023/08/29 01:01:36;;;;;;;7.05;4.43;;;;;;;;;;5016732;28;20103;-79
2023/08/29 01:04:02;;;;;;;7.78;4.47;;;;;;;;;;5019362;28;20053;-78
2023/08/29 01:06:30;;;;;;;6.60;4.32;;;;;;;;;;5017798;28;20053;-79
2023/08/29 01:08:57;;;;;;;6.20;4.53;;;;;;;;;;5016825;28;20417;-79
2023/08/29 01:11:27;;;;;;;7.70;4.47;;;;;;;;;;5035089;28;20053;-79
2023/08/29 01:13:56;;;;;;;6.40;4.60;;;;;;;;;;5034105;28;20076;-79
2023/08/29 01:16:28;;;;;;;8.10;4.90;;;;;;;;;;5017129;28;20168;-79
2023/08/29 01:18:54;;;;;;;8.10;4.60;;;;;;;;;;5014746;28;20054;-79
2023/08/29 01:21:24;;;;;;;6.15;4.70;;;;;;;;;;5016768;28;20347;-79
2023/08/29 01:24:10;;;;;;;5.25;4.20;;;;;;;;;;5016716;28;20072;-79
2023/08/29 01:26:37;;;;;;;7.32;4.50;;;;;;;;;;5012091;28;20394;-79
2023/08/29 01:29:03;;;;;;;6.90;4.70;;;;;;;;;;4981274;28;20042;-78
2023/08/29 01:31:30;;;;;;;7.25;4.65;;;;;;;;;;5011188;28;20041;-77
2023/08/29 01:33:59;;;;;;;8.23;4.63;;;;;;;;;;5033453;28;20053;-78
2023/08/29 01:36:37;;;;;;;8.43;5.10;;;;;;;;;;5034083;28;20449;-79
2023/08/29 01:39:03;;;;;;;6.65;4.80;;;;;;;;;;5034144;28;20092;-79
2023/08/29 01:41:29;;;;;;;6.63;4.57;;;;;;;;;;5033617;28;20068;-78
2023/08/29 01:43:55;;;;;;;6.35;4.72;;;;;;;;;;5034146;28;20474;-79
2023/08/29 01:46:21;;;;;;;7.68;4.20;;;;;;;;;;5016744;28;20497;-79
2023/08/29 01:48:48;;;;;;;5.82;4.45;;;;;;;;;;5016850;28;20452;-78
2023/08/29 01:51:15;;;;;;;7.95;4.40;;;;;;;;;;5016588;28;20041;-79
2023/08/29 01:53:42;;;;;;;6.38;4.40;;;;;;;;;;5034200;28;20387;-78
2023/08/29 01:56:09;;;;;;;9.70;4.40;;;;;;;;;;5000005;28;20084;-78
2023/08/29 01:58:36;;;;;;;8.20;4.57;;;;;;;;;;5034021;28;20409;-79
2023/08/29 02:01:02;;;;;;;9.27;4.90;;;;;;;;;;5016459;28;20135;-78
2023/08/29 02:03:28;;;;;;;8.05;4.75;;;;;;;;;;5033359;28;20053;-79
2023/08/29 02:05:54;;;;;;;7.38;4.97;;;;;;;;;;5016464;28;20057;-78
2023/08/29 02:08:20;;;;;;;6.30;4.72;;;;;;;;;;5032153;28;20478;-78
2023/08/29 02:10:46;;;;;;;6.78;4.93;;;;;;;;;;5016010;28;20443;-78
2023/08/29 02:13:12;;;;;;;6.80;4.72;;;;;;;;;;5015206;28;20128;-78
2023/08/29 02:15:38;;;;;;;8.73;5.10;;;;;;;;;;5033376;28;20494;-78
2023/08/29 02:18:05;;;;;;;6.75;5.18;;;;;;;;;;5033275;28;20041;-79
2023/08/29 02:20:31;;;;;;;7.68;4.90;;;;;;;;;;5034032;28;20048;-79
2023/08/29 02:22:57;;;;;;;7.15;5.07;;;;;;;;;;5015176;28;20053;-78
2023/08/29 02:25:23;;;;;;;7.60;5.30;;;;;;;;;;5016002;28;20466;-78
2023/08/29 02:27:49;;;;;;;8.93;4.95;;;;;;;;;;5002831;28;20053;-79
2023/08/29 02:30:15;;;;;;;6.78;5.18;;;;;;;;;;5033128;28;20045;-79
2023/08/29 02:32:41;;;;;;;9.38;5.07;;;;;;;;;;5032712;28;20057;-79
2023/08/29 02:35:08;;;;;;;7.10;5.32;;;;;;;;;;5014797;28;20052;-79
2023/08/29 02:37:34;;;;;;;7.75;5.40;;;;;;;;;;5032661;28;20041;-80
2023/08/29 02:40:01;;;;;;;7.80;5.10;;;;;;;;;;5032745;28;20033;-77
2023/08/29 02:42:27;;;;;;;8.00;5.28;;;;;;;;;;5033222;28;20144;-78
2023/08/29 02:44:53;;;;;;;9.45;5.47;;;;;;;;;;5032441;28;20127;-79
2023/08/29 02:47:19;;;;;;;6.47;5.15;;;;;;;;;;5032809;28;20045;-78
2023/08/29 02:49:45;;;;;;;7.15;5.20;;;;;;;;;;5029749;28;20042;-78
2023/08/29 02:52:11;;;;;;;7.20;6.00;;;;;;;;;;5013692;28;20056;-79
2023/08/29 02:54:37;;;;;;;8.20;5.70;;;;;;;;;;5012790;28;20048;-78
2023/08/29 02:57:03;;;;;;;7.20;5.82;;;;;;;;;;4998367;28;20124;-78
2023/08/29 02:59:30;;;;;;;7.25;5.97;;;;;;;;;;4998892;28;20049;-79
2023/08/29 03:01:56;;;;;;;7.43;5.50;;;;;;;;;;5032673;28;20095;-78
2023/08/29 03:04:23;;;;;;;7.57;5.90;;;;;;;;;;5031643;28;20057;-77
2023/08/29 03:06:51;;;;;;;8.90;5.45;;;;;;;;;;5013315;28;20049;-79
2023/08/29 03:09:18;;;;;;;8.07;6.07;;;;;;;;;;4998683;28;20382;-79
2023/08/29 03:11:44;;;;;;;7.93;5.85;;;;;;;;;;5032336;28;20053;-79
2023/08/29 03:14:10;;;;;;;8.68;5.88;;;;;;;;;;5014794;28;20064;-79
2023/08/29 03:16:36;;;;;;;9.73;6.43;;;;;;;;;;5032767;28;20056;-79
2023/08/29 03:19:03;;;;;;;6.55;5.50;;;;;;;;;;5014653;28;20045;-79
2023/08/29 03:21:29;;;;;;;7.10;5.75;;;;;;;;;;5032400;28;20049;-79
2023/08/29 03:23:55;;;;;;;10.27;6.00;;;;;;;;;;5031809;28;20440;-79
2023/08/29 03:26:21;;;;;;;8.10;6.20;;;;;;;;;;4996770;28;20045;-80
2023/08/29 03:28:47;;;;;;;8.93;6.07;;;;;;;;;;5022364;28;20041;-77
2023/08/29 03:31:14;;;;;;;7.00;5.60;;;;;;;;;;5019645;28;20061;-77
2023/08/29 03:33:41;;;;;;;10.68;6.30;;;;;;;;;;5014772;28;20056;-79
2023/08/29 03:36:07;;;;;;;7.22;5.80;;;;;;;;;;5032829;28;20131;-78
2023/08/29 03:38:40;;;;;;;7.85;5.57;;;;;;;;;;5014640;28;20080;-77
2023/08/29 03:41:07;;;;;;;7.35;6.03;;;;;;;;;;5032813;28;20042;-78
2023/08/29 03:43:34;;;;;;;8.57;6.20;;;;;;;;;;5030726;28;20049;-78
2023/08/29 03:46:09;;;;;;;7.75;6.20;;;;;;;;;;5012571;28;20045;-78
2023/08/29 03:48:36;;;;;;;9.07;6.03;;;;;;;;;;5011681;28;20057;-78
2023/08/29 03:51:08;;;;;;;8.77;5.90;;;;;;;;;;5014612;28;20045;-78
2023/08/29 03:53:35;;;;;;;9.13;6.20;;;;;;;;;;5032185;28;20053;-80
2023/08/29 03:56:02;;;;;;;6.82;5.90;;;;;;;;;;5015121;28;20124;-78
2023/08/29 03:58:29;;;;;;;9.60;6.25;;;;;;;;;;5016695;28;20140;-78
2023/08/29 04:00:55;;;;;;;8.00;5.68;;;;;;;;;;5018689;28;20057;-78
2023/08/29 04:03:21;;;;;;;9.15;6.60;;;;;;;;;;5018604;28;20140;-78
2023/08/29 04:05:47;;;;;;;9.77;6.22;;;;;;;;;;5019083;28;20049;-78
2023/08/29 04:08:13;;;;;;;8.40;5.70;;;;;;;;;;5035843;28;20542;-78
2023/08/29 04:10:40;;;;;;;8.77;5.80;;;;;;;;;;5036153;28;20090;-78
2023/08/29 04:13:07;;;;;;;9.50;5.47;;;;;;;;;;5019798;28;20046;-79
2023/08/29 04:15:36;;;;;;;7.28;6.20;;;;;;;;;;5035514;28;20398;-78
2023/08/29 04:18:03;;;;;;;8.55;6.22;;;;;;;;;;5035744;28;20089;-79
2023/08/29 04:20:29;;;;;;;8.73;6.40;;;;;;;;;;5018715;28;20513;-78
2023/08/29 04:22:57;;;;;;;6.93;5.70;;;;;;;;;;5018006;28;20048;-78
2023/08/29 04:25:26;;;;;;;7.55;5.80;;;;;;;;;;5017115;28;20042;-79
2023/08/29 04:27:52;;;;;;;6.32;5.57;;;;;;;;;;5001099;28;20048;-78
2023/08/29 04:30:18;;;;;;;8.70;6.30;;;;;;;;;;5018266;28;20383;-79
2023/08/29 04:32:46;;;;;;;8.40;5.38;;;;;;;;;;5035195;28;20451;-78
2023/08/29 04:35:12;;;;;;;6.30;5.25;;;;;;;;;;5017788;28;20063;-79
2023/08/29 04:37:38;;;;;;;7.47;5.90;;;;;;;;;;5035443;28;20045;-79
2023/08/29 04:40:08;;;;;;;7.72;5.55;;;;;;;;;;5016248;28;20131;-79
2023/08/29 04:42:34;;;;;;;7.63;6.05;;;;;;;;;;5017361;28;20053;-80
2023/08/29 04:45:04;;;;;;;9.35;6.13;;;;;;;;;;5035019;28;20044;-79
2023/08/29 04:47:33;;;;;;;8.80;6.05;;;;;;;;;;5035218;28;20088;-79
2023/08/29 04:50:00;;;;;;;8.07;6.13;;;;;;;;;;5017615;28;20038;-79
2023/08/29 04:52:26;;;;;;;6.82;6.05;;;;;;;;;;5017353;28;20033;-79
2023/08/29 04:54:53;;;;;;;6.80;6.10;;;;;;;;;;5000521;28;20423;-79
2023/08/29 04:57:19;;;;;;;9.20;6.20;;;;;;;;;;5016905;28;20490;-79
2023/08/29 04:59:45;;;;;;;8.68;6.03;;;;;;;;;;5034792;28;20525;-79
2023/08/29 05:02:11;;;;;;;8.45;6.13;;;;;;;;;;5034904;28;20041;-79
2023/08/29 05:04:38;;;;;;;10.48;6.20;;;;;;;;;;4981273;28;20058;-79
2023/08/29 05:07:04;;;;;;;8.05;5.80;;;;;;;;;;5018828;28;20117;-79
2023/08/29 05:09:30;;;;;;;8.25;5.85;;;;;;;;;;5033687;28;20040;-79
2023/08/29 05:11:56;;;;;;;8.57;5.78;;;;;;;;;;5016207;28;20124;-80
2023/08/29 05:14:22;;;;;;;9.80;6.20;;;;;;;;;;5016628;28;20048;-80
2023/08/29 05:16:48;;;;;;;8.38;5.53;;;;;;;;;;5034637;28;20110;-79
2023/08/29 05:19:14;;;;;;;7.63;5.78;;;;;;;;;;5017059;28;20497;-80
2023/08/29 05:21:40;;;;;;;7.90;6.00;;;;;;;;;;5035126;28;20445;-80
2023/08/29 05:24:06;;;;;;;8.93;5.72;;;;;;;;;;5016056;28;20099;-78
2023/08/29 05:26:32;;;;;;;7.15;5.60;;;;;;;;;;5014293;28;20394;-79
2023/08/29 05:28:58;;;;;;;7.72;5.60;;;;;;;;;;5033606;28;20046;-79
2023/08/29 05:31:25;;;;;;;7.38;5.72;;;;;;;;;;5016371;28;20045;-79
2023/08/29 05:33:51;;;;;;;7.28;5.97;;;;;;;;;;5015721;28;20464;-80
2023/08/29 05:36:17;;;;;;;7.55;5.70;;;;;;;;;;5016284;28;20038;-79
2023/08/29 05:38:43;;;;;;;7.60;5.50;;;;;;;;;;5015641;28;20375;-79
2023/08/29 05:41:09;;;;;;;7.15;5.22;;;;;;;;;;5033883;28;20092;-79
2023/08/29 05:43:36;;;;;;;10.63;5.57;;;;;;;;;;5033902;28;20564;-80
2023/08/29 05:46:02;;;;;;;8.60;5.80;;;;;;;;;;5031587;28;20037;-78
2023/08/29 05:48:28;;;;;;;8.68;5.40;;;;;;;;;;5031233;28;20473;-79
2023/08/29 05:50:55;;;;;;;7.45;5.60;;;;;;;;;;5033951;28;20034;-79
2023/08/29 05:53:21;;;;;;;6.38;5.35;;;;;;;;;;5014628;28;20046;-80
2023/08/29 05:55:47;;;;;;;7.50;5.35;;;;;;;;;;5032624;28;20574;-79
2023/08/29 05:58:13;;;;;;;9.65;6.10;;;;;;;;;;5015432;28;20049;-79
2023/08/29 06:00:39;;;;;;;8.38;5.85;;;;;;;;;;5000321;28;20394;-80
2023/08/29 06:03:09;;;;;;;9.45;6.10;;;;;;;;;;4999168;28;20046;-78
2023/08/29 06:05:36;;;;;;;8.23;5.50;;;;;;;;;;5014095;28;20128;-78
2023/08/29 06:08:03;;;;;;;12.43;5.30;;;;;;;;;;4983430;28;20045;-78
2023/08/29 06:10:32;;;;;;;7.03;5.25;;;;;;;;;;5016005;28;20037;-78
2023/08/29 06:12:58;;;;;;;8.00;5.40;;;;;;;;;;4998852;28;20391;-79
2023/08/29 06:15:24;;;;;;;9.95;5.30;;;;;;;;;;5015635;28;20073;-78
2023/08/29 06:17:51;;;;;;;9.57;5.28;;;;;;;;;;5015548;28;20051;-79
2023/08/29 06:20:17;;;;;;;7.05;4.93;;;;;;;;;;5033329;28;20474;-79
2023/08/29 06:22:44;;;;;;;7.75;5.15;;;;;;;;;;5033540;28;20406;-79
2023/08/29 06:25:10;;;;;;;8.05;4.97;;;;;;;;;;5033434;28;20374;-79
2023/08/29 06:27:37;;;;;;;7.00;4.95;;;;;;;;;;5012263;28;20344;-79
2023/08/29 06:30:04;;;;;;;5.90;4.40;;;;;;;;;;4995879;28;20125;-77
2023/08/29 06:32:30;;;;;;;6.30;4.60;;;;;;;;;;4996050;28;20046;-78
2023/08/29 06:34:57;;;;;;;6.85;4.50;;;;;;;;;;5013676;28;20041;-76
2023/08/29 06:37:23;;;;;;;7.53;5.35;;;;;;;;;;5013615;28;20053;-76
2023/08/29 06:39:49;;;;;;;7.07;4.78;;;;;;;;;;4997178;28;20060;-76
2023/08/29 06:42:15;;;;;;;7.28;4.20;;;;;;;;;;5031984;28;20045;-77
2023/08/29 06:44:41;;;;;;;6.53;4.43;;;;;;;;;;5013743;28;20053;-77
2023/08/29 06:47:07;;;;;;;5.75;4.10;;;;;;;;;;5013977;28;20063;-76
2023/08/29 06:49:37;;;;;;;6.50;4.18;;;;;;;;;;5034018;28;20128;-76
2023/08/29 06:52:03;;;;;;;7.18;4.03;;;;;;;;;;5020692;28;20045;-75
2023/08/29 06:54:30;;;;;;;7.47;4.22;;;;;;;;;;5034288;28;20394;-76
2023/08/29 06:56:56;;;;;;;7.18;3.92;;;;;;;;;;5032870;28;20401;-76
2023/08/29 06:59:22;;;;;;;7.72;3.85;;;;;;;;;;5032106;28;20029;-76
2023/08/29 07:01:48;;;;;;;7.25;3.65;;;;;;;;;;5032513;28;20045;-77
2023/08/29 07:04:14;;;;;;;5.63;3.60;;;;;;;;;;5030498;28;20052;-76
2023/08/29 07:06:40;;;;;;;5.15;3.53;;;;;;;;;;5015564;28;20049;-77
2023/08/29 07:09:07;;;;;;;6.03;3.20;;;;;;;;;;4998898;28;20045;-76
2023/08/29 07:11:33;;;;;;;5.15;3.20;;;;;;;;;;5014826;28;20049;-76
2023/08/29 07:13:59;;;;;;;5.30;3.00;;;;;;;;;;5032137;28;20494;-76
2023/08/29 07:16:25;;;;;;;5.45;3.10;;;;;;;;;;5033462;28;20037;-77
2023/08/29 07:18:51;;;;;;;3.45;2.70;;;;;;;;;;5015068;28;20176;-76
2023/08/29 07:21:17;;;;;;;5.03;2.78;;;;;;;;;;5033202;28;20081;-76
2023/08/29 07:23:43;;;;;;;4.93;2.63;;;;;;;;;;5014191;28;20077;-76
2023/08/29 07:26:09;;;;;;;4.85;2.70;;;;;;;;;;5015140;28;20149;-77
2023/08/29 07:28:36;;;;;;;5.15;2.70;;;;;;;;;;4994598;28;20125;-76
2023/08/29 07:31:02;;;;;;;5.63;2.53;;;;;;;;;;4992038;28;20068;-77
2023/08/29 07:33:29;;;;;;;6.13;3.17;;;;;;;;;;5012207;28;20056;-76
2023/08/29 07:35:56;;;;;;;5.20;2.60;;;;;;;;;;5013043;28;20056;-76
2023/08/29 07:38:22;;;;;;;4.40;2.67;;;;;;;;;;5018701;28;20061;-76
2023/08/29 07:40:48;;;;;;;5.03;2.70;;;;;;;;;;5031429;28;20393;-75
2023/08/29 07:43:15;;;;;;;5.50;2.70;;;;;;;;;;5031989;28;20100;-76
2023/08/29 07:45:41;;;;;;;4.53;2.22;;;;;;;;;;4997293;28;20495;-76
2023/08/29 07:48:07;;;;;;;3.85;2.10;;;;;;;;;;5031577;28;20102;-75
2023/08/29 07:50:33;;;;;;;4.65;2.30;;;;;;;;;;5032537;28;20041;-77
2023/08/29 07:52:59;;;;;;;3.47;2.20;;;;;;;;;;5029337;28;20470;-76
2023/08/29 07:55:26;;;;;;;4.25;2.20;;;;;;;;;;4977033;28;20061;-77
2023/08/29 07:57:52;;;;;;;4.20;2.30;;;;;;;;;;5010184;28;20050;-77
2023/08/29 08:00:18;;;;;;;6.78;2.08;;;;;;;;;;4994841;28;20065;-78
2023/08/29 08:02:44;;;;;;;5.50;2.00;;;;;;;;;;5012343;28;20058;-76
2023/08/29 08:05:16;;;;;;;4.50;1.83;;;;;;;;;;5012388;28;20186;-76
2023/08/29 08:07:44;;;;;;;4.03;1.90;;;;;;;;;;5011341;28;20042;-76
2023/08/29 08:10:11;;;;;;;3.67;1.88;;;;;;;;;;5012767;28;20395;-77
2023/08/29 08:12:38;;;;;;;6.07;1.90;;;;;;;;;;5012395;28;20046;-77
2023/08/29 08:15:04;;;;;;;6.50;2.10;;;;;;;;;;5012473;28;20085;-77
2023/08/29 08:17:30;;;;;;;3.50;2.00;;;;;;;;;;4994520;28;20045;-77
2023/08/29 08:19:56;;;;;;;4.85;2.00;;;;;;;;;;4994880;28;20052;-77
2023/08/29 08:22:23;;;;;;;3.58;2.05;;;;;;;;;;4995014;28;20045;-77
2023/08/29 08:24:49;;;;;;;2.75;1.95;;;;;;;;;;4977386;28;20045;-77
2023/08/29 08:27:15;;;;;;;4.00;1.90;;;;;;;;;;4999103;28;20050;-75
2023/08/29 08:29:42;;;;;;;4.25;1.90;;;;;;;;;;4994672;28;20579;-77
2023/08/29 08:32:08;;;;;;;3.08;2.00;;;;;;;;;;4995488;28;20116;-77
2023/08/29 08:34:34;;;;;;;4.07;2.00;;;;;;;;;;5011991;28;20076;-78
2023/08/29 08:37:00;;;;;;;4.85;1.90;;;;;;;;;;5014290;28;20535;-77
2023/08/29 08:39:26;;;;;;;6.53;1.90;;;;;;;;;;5014158;28;20050;-77
2023/08/29 08:41:53;;;;;;;3.25;2.03;;;;;;;;;;5014552;28;20498;-77
2023/08/29 08:44:21;;;;;;;5.65;1.80;;;;;;;;;;5017695;28;20447;-78
2023/08/29 08:46:47;;;;;;;2.95;1.75;;;;;;;;;;5035353;28;20049;-77
2023/08/29 08:49:13;;;;;;;2.35;1.48;;;;;;;;;;5035462;28;20076;-77
2023/08/29 08:51:41;;;;;;;1.45;1.00;;;;;;;;;;5017754;28;20042;-77
2023/08/29 08:54:08;;;;;;;2.63;1.40;;;;;;;;;;5000252;28;20064;-77
2023/08/29 08:56:34;;;;;;;2.88;1.50;;;;;;;;;;5001387;28;20081;-77
2023/08/29 08:59:00;;;;;;;3.88;1.50;;;;;;;;;;5034159;28;20049;-77
2023/08/29 09:01:27;;;;;;;4.10;1.42;;;;;;;;;;5017277;28;20155;-78
2023/08/29 09:03:53;;;;;;;3.33;1.40;;;;;;;;;;5034616;28;20045;-79
2023/08/29 09:06:19;;;;;;;2.70;1.38;;;;;;;;;;4999615;28;20556;-78
2023/08/29 09:08:45;;;;;;;3.25;1.42;;;;;;;;;;5033971;28;20041;-78
2023/08/29 09:11:11;;;;;;;4.80;1.55;;;;;;;;;;5017007;28;20478;-77
2023/08/29 09:13:47;;;;;;;3.42;1.55;;;;;;;;;;5033934;28;20045;-77
2023/08/29 09:16:14;;;;;;;3.22;1.40;;;;;;;;;;5033583;28;20053;-77
2023/08/29 09:18:42;;;;;;;3.45;1.40;;;;;;;;;;5034820;28;20041;-76
2023/08/29 09:21:16;;;;;;;4.40;1.40;;;;;;;;;;5017246;28;20061;-76
2023/08/29 09:23:42;;;;;;;3.90;1.20;;;;;;;;;;5016851;28;20124;-77
2023/08/29 09:26:10;;;;;;;3.13;1.30;;;;;;;;;;5017502;28;20405;-77
2023/08/29 09:28:38;;;;;;;2.20;1.35;;;;;;;;;;5034352;28;20080;-77
2023/08/29 09:31:05;;;;;;;3.03;1.58;;;;;;;;;;5017072;28;20053;-77
2023/08/29 09:33:32;;;;;;;3.53;1.48;;;;;;;;;;5016584;28;20041;-77
2023/08/29 09:36:01;;;;;;;4.03;1.60;;;;;;;;;;5035029;28;20402;-77
2023/08/29 09:38:32;;;;;;;3.97;1.70;;;;;;;;;;5016643;28;20045;-76
2023/08/29 09:40:58;;;;;;;2.67;1.70;;;;;;;;;;5034445;28;20046;-77
2023/08/29 09:43:27;;;;;;;3.67;1.80;;;;;;;;;;5034015;28;20135;-77
2023/08/29 09:45:53;;;;;;;4.03;1.88;;;;;;;;;;5031132;28;20042;-77
2023/08/29 09:48:19;;;;;;;5.40;2.08;;;;;;;;;;5013235;28;20053;-77
2023/08/29 09:50:46;;;;;;;4.93;1.90;;;;;;;;;;5013657;28;20084;-77
2023/08/29 09:53:19;;;;;;;3.95;1.90;;;;;;;;;;5013088;28;20091;-77
2023/08/29 09:55:48;;;;;;;7.72;2.40;;;;;;;;;;5030952;28;20096;-76
2023/08/29 09:58:16;;;;;;;6.55;2.03;;;;;;;;;;5013127;28;20052;-77
2023/08/29 10:00:42;;;;;;;3.17;1.92;;;;;;;;;;5031500;28;20053;-77
2023/08/29 10:03:09;;;;;;;3.65;1.70;;;;;;;;;;5029291;28;20491;-77
2023/08/29 10:05:36;;;;;;;2.45;1.65;;;;;;;;;;5030718;28;20125;-77
2023/08/29 10:08:06;;;;;;;3.88;1.67;;;;;;;;;;5034482;28;20065;-76
2023/08/29 10:10:34;;;;;;;4.20;1.80;;;;;;;;;;5032511;28;20065;-76
2023/08/29 10:13:01;;;;;;;3.15;1.67;;;;;;;;;;5035510;28;20474;-76
2023/08/29 10:15:27;;;;;;;3.22;1.70;;;;;;;;;;5035297;28;20083;-77
2023/08/29 10:17:55;;;;;;;3.60;1.80;;;;;;;;;;5034329;28;20095;-77
2023/08/29 10:20:22;;;;;;;3.72;1.50;;;;;;;;;;5033967;28;20042;-76
2023/08/29 10:22:48;;;;;;;2.80;1.50;;;;;;;;;;4998665;28;20044;-77
2023/08/29 10:25:15;;;;;;;2.35;1.52;;;;;;;;;;4999328;28;20041;-77
2023/08/29 10:27:42;;;;;;;3.00;1.30;;;;;;;;;;5033157;28;20451;-76
2023/08/29 10:30:08;;;;;;;3.25;1.58;;;;;;;;;;5031379;28;20072;-77
2023/08/29 10:32:35;;;;;;;3.28;1.58;;;;;;;;;;5029848;28;20125;-76
2023/08/29 10:35:03;;;;;;;2.70;1.35;;;;;;;;;;5012217;28;20053;-77
2023/08/29 10:37:29;;;;;;;4.00;1.50;;;;;;;;;;5030584;28;20060;-77
2023/08/29 10:40:08;;;;;;;3.08;1.52;;;;;;;;;;5030329;28;20041;-76
2023/08/29 10:42:48;;;;;;;4.03;1.60;;;;;;;;;;5012307;28;20140;-77
2023/08/29 10:45:14;;;;;;;5.68;1.77;;;;;;;;;;5014823;28;20049;-76
2023/08/29 10:47:46;;;;;;;3.13;1.50;;;;;;;;;;5015463;28;20049;-77
2023/08/29 10:50:17;;;;;;;2.75;1.45;;;;;;;;;;5015133;28;20041;-77
2023/08/29 10:52:46;;;;;;;3.50;1.70;;;;;;;;;;5015410;28;20490;-77
2023/08/29 10:55:21;;;;;;;4.05;1.90;;;;;;;;;;5033356;28;20319;-77
2023/08/29 10:57:47;;;;;;;3.17;1.77;;;;;;;;;;5033157;28;20052;-77
2023/08/29 11:00:18;;;;;;;4.13;1.80;;;;;;;;;;5015508;28;20061;-77
2023/08/29 11:02:44;;;;;;;4.40;1.70;;;;;;;;;;5015078;28;20053;-76
2023/08/29 11:05:10;;;;;;;2.58;1.70;;;;;;;;;;5032918;28;20493;-77
2023/08/29 11:07:37;;;;;;;3.42;1.80;;;;;;;;;;5032683;28;20056;-77
2023/08/29 11:10:13;;;;;;;3.13;1.73;;;;;;;;;;5032948;28;20046;-77
2023/08/29 11:13:09;;;;;;;3.58;1.92;;;;;;;;;;5032896;28;20041;-77
2023/08/29 11:15:47;;;;;;;2.83;1.77;;;;;;;;;;5008797;28;20103;-77
2023/08/29 11:18:32;;;;;;;3.90;2.60;;;;;;;;;;5032409;28;20056;-76
2023/08/29 11:21:11;;;;;;;5.70;2.22;;;;;;;;;;5015841;28;20045;-78
2023/08/29 11:23:41;;;;;;;5.32;2.78;;;;;;;;;;5032492;28;20041;-77
2023/08/29 11:26:08;;;;;;;4.70;2.50;;;;;;;;;;5015281;28;20050;-77
2023/08/29 11:28:38;;;;;;;4.78;2.72;;;;;;;;;;5029646;28;20076;-77
2023/08/29 11:31:05;;;;;;;3.58;2.15;;;;;;;;;;5032629;28;20087;-77
2023/08/29 11:33:32;;;;;;;4.82;2.00;;;;;;;;;;5014798;28;20041;-77
2023/08/29 11:35:59;;;;;;;2.47;1.70;;;;;;;;;;5015114;28;20041;-78
2023/08/29 11:38:29;;;;;;;3.53;1.80;;;;;;;;;;5031054;28;20217;-78
2023/08/29 11:40:55;;;;;;;3.40;2.00;;;;;;;;;;5032434;28;20046;-77
2023/08/29 11:43:22;;;;;;;2.50;1.73;;;;;;;;;;5032201;28;20044;-76
2023/08/29 11:45:48;;;;;;;4.70;2.10;;;;;;;;;;5015262;28;20431;-77
2023/08/29 11:48:21;;;;;;;5.57;1.98;;;;;;;;;;5032017;28;20077;-76
2023/08/29 11:50:47;;;;;;;3.08;1.80;;;;;;;;;;5032638;28;20060;-76
2023/08/29 11:53:21;;;;;;;3.38;1.80;;;;;;;;;;5014420;28;20041;-76
2023/08/29 11:55:47;;;;;;;2.73;1.90;;;;;;;;;;5032359;28;20490;-77
2023/08/29 11:58:13;;;;;;;4.20;1.95;;;;;;;;;;5032002;28;20371;-77
2023/08/29 12:00:40;;;;;;;3.67;1.80;;;;;;;;;;5014608;28;20049;-77
2023/08/29 12:03:06;;;;;;;3.13;1.73;;;;;;;;;;5027321;28;20053;-77
2023/08/29 12:05:32;;;;;;;3.05;2.00;;;;;;;;;;5012027;28;20046;-77
2023/08/29 12:08:00;;;;;;;3.05;1.80;;;;;;;;;;5012646;28;20107;-77
2023/08/29 12:10:29;;;;;;;3.35;1.77;;;;;;;;;;4979127;28;20045;-75
2023/08/29 12:12:55;;;;;;;3.47;1.70;;;;;;;;;;5012338;28;20104;-76
2023/08/29 12:15:34;;;;;;;3.20;1.90;;;;;;;;;;4979383;28;20050;-77
2023/08/29 12:18:00;;;;;;;4.75;2.17;;;;;;;;;;5014508;28;20100;-76
2023/08/29 12:20:27;;;;;;;3.08;1.80;;;;;;;;;;4982752;28;20049;-75
2023/08/29 12:22:53;;;;;;;3.40;2.20;;;;;;;;;;4998223;28;20050;-76
2023/08/29 12:25:20;;;;;;;3.13;1.98;;;;;;;;;;5016375;28;20107;-76
2023/08/29 12:27:46;;;;;;;2.95;2.13;;;;;;;;;;4981162;28;20046;-77
2023/08/29 12:30:14;;;;;;;4.30;2.20;;;;;;;;;;4997552;28;20046;-77
2023/08/29 12:32:44;;;;;;;5.57;2.00;;;;;;;;;;4998334;28;20056;-77
2023/08/29 12:35:10;;;;;;;3.05;1.90;;;;;;;;;;5015935;28;20048;-76
2023/08/29 12:37:37;;;;;;;3.25;1.88;;;;;;;;;;4998491;28;20052;-77
2023/08/29 12:40:04;;;;;;;3.40;1.90;;;;;;;;;;5015951;28;20052;-76
2023/08/29 12:42:31;;;;;;;4.35;2.10;;;;;;;;;;4996986;28;20042;-76
2023/08/29 12:44:57;;;;;;;3.40;1.90;;;;;;;;;;4998112;28;20050;-76
2023/08/29 12:47:23;;;;;;;3.78;2.20;;;;;;;;;;5015963;28;20057;-76
2023/08/29 12:49:49;;;;;;;3.33;2.00;;;;;;;;;;4982013;28;20058;-76
2023/08/29 12:52:15;;;;;;;4.13;2.40;;;;;;;;;;4998055;28;20077;-76
2023/08/29 12:54:42;;;;;;;5.00;2.20;;;;;;;;;;5015239;28;20049;-76
2023/08/29 12:57:09;;;;;;;3.85;2.40;;;;;;;;;;5015823;28;20058;-76
2023/08/29 12:59:35;;;;;;;3.75;2.20;;;;;;;;;;4997983;28;20462;-75
2023/08/29 13:02:02;;;;;;;4.88;2.33;;;;;;;;;;5015285;28;20136;-76
2023/08/29 13:04:28;;;;;;;4.18;2.20;;;;;;;;;;5028314;28;20090;-75
2023/08/29 13:06:55;;;;;;;4.63;2.80;;;;;;;;;;5035047;28;20098;-76
2023/08/29 13:09:21;;;;;;;5.28;2.47;;;;;;;;;;5035337;28;20052;-77
2023/08/29 13:11:47;;;;;;;4.25;2.30;;;;;;;;;;5016697;28;20127;-76
2023/08/29 13:14:13;;;;;;;3.45;2.08;;;;;;;;;;5032969;28;20470;-77
2023/08/29 13:16:39;;;;;;;3.63;2.58;;;;;;;;;;5017667;28;20184;-76
2023/08/29 13:19:06;;;;;;;5.00;2.30;;;;;;;;;;5034953;28;20041;-79
2023/08/29 13:21:32;;;;;;;4.57;2.78;;;;;;;;;;5017514;28;20509;-80
2023/08/29 13:23:58;;;;;;;3.83;2.50;;;;;;;;;;5040019;28;20041;-79
2023/08/29 13:26:24;;;;;;;3.33;2.10;;;;;;;;;;5048028;28;20045;-80
2023/08/29 13:28:50;;;;;;;4.10;2.15;;;;;;;;;;5000416;28;20041;-79
2023/08/29 13:31:18;;;;;;;3.40;2.40;;;;;;;;;;5015970;28;20069;-80
2023/08/29 13:33:46;;;;;;;3.75;2.08;;;;;;;;;;5012737;28;20060;-79
2023/08/29 13:36:12;;;;;;;4.30;2.40;;;;;;;;;;5018278;28;20033;-77
2023/08/29 13:38:39;;;;;;;3.92;2.42;;;;;;;;;;5027146;28;20099;-79
2023/08/29 13:41:07;;;;;;;4.00;2.40;;;;;;;;;;5015425;28;20046;-80
2023/08/29 13:43:33;;;;;;;4.85;2.10;;;;;;;;;;5000526;28;20140;-79
2023/08/29 13:45:59;;;;;;;4.45;2.33;;;;;;;;;;5035092;28;20041;-80
2023/08/29 13:48:25;;;;;;;5.35;2.38;;;;;;;;;;5016788;28;20052;-79
2023/08/29 13:50:54;;;;;;;4.38;2.13;;;;;;;;;;5034460;28;20049;-78
2023/08/29 13:53:21;;;;;;;4.72;2.22;;;;;;;;;;5032045;28;20049;-78
2023/08/29 13:55:49;;;;;;;4.20;2.20;;;;;;;;;;5034563;28;20048;-77
2023/08/29 13:58:15;;;;;;;5.00;2.10;;;;;;;;;;5016100;28;20045;-79
2023/08/29 14:00:41;;;;;;;4.03;2.20;;;;;;;;;;5016964;28;20073;-78
2023/08/29 14:03:07;;;;;;;4.88;2.30;;;;;;;;;;5033495;28;20077;-78
2023/08/29 14:05:34;;;;;;;3.97;2.08;;;;;;;;;;5034366;28;20049;-79
2023/08/29 14:08:00;;;;;;;6.45;2.53;;;;;;;;;;5032264;28;20100;-79
2023/08/29 14:10:26;;;;;;;4.07;2.58;;;;;;;;;;5022686;28;20034;-79
2023/08/29 14:12:52;;;;;;;4.50;2.38;;;;;;;;;;5021607;28;20053;-79
2023/08/29 14:15:18;;;;;;;4.22;2.50;;;;;;;;;;5023692;28;20041;-79
2023/08/29 14:17:44;;;;;;;5.28;2.20;;;;;;;;;;5004532;28;20399;-78
2023/08/29 14:20:10;;;;;;;3.22;1.80;;;;;;;;;;5011045;28;20367;-79
2023/08/29 14:22:37;;;;;;;4.38;2.20;;;;;;;;;;5006348;28;20041;-79
2023/08/29 14:25:03;;;;;;;6.15;2.45;;;;;;;;;;5024479;28;20120;-78
2023/08/29 14:27:29;;;;;;;4.85;2.30;;;;;;;;;;4990747;28;20038;-79
2023/08/29 14:29:55;;;;;;;4.82;2.33;;;;;;;;;;5022722;28;20041;-78
2023/08/29 14:32:21;;;;;;;3.28;2.20;;;;;;;;;;5007177;28;20057;-79
2023/08/29 14:34:47;;;;;;;4.90;2.20;;;;;;;;;;5004473;28;20490;-79
2023/08/29 14:37:14;;;;;;;3.45;2.15;;;;;;;;;;5005713;28;20178;-79
2023/08/29 14:39:40;;;;;;;4.22;2.20;;;;;;;;;;5005761;28;20108;-80
2023/08/29 14:42:06;;;;;;;3.78;2.10;;;;;;;;;;5004363;28;20147;-80